createdAt,value
2023-04-27T00:01:02.921Z,52.40
2023-04-27T00:02:36.229Z,52.40
2023-04-27T00:04:09.904Z,52.50
2023-04-27T00:05:44.212Z,52.60
2023-04-27T00:07:17.463Z,52.60
2023-04-27T00:08:50.984Z,52.50
2023-04-27T00:10:24.164Z,52.50
2023-04-27T00:11:58.747Z,52.60
2023-04-27T00:13:32.057Z,52.60
2023-04-27T00:15:05.967Z,52.60
2023-04-27T00:16:39.233Z,52.70
2023-04-27T00:18:12.524Z,52.60
2023-04-27T00:19:47.405Z,52.70
2023-04-27T00:21:21.402Z,52.70
2023-04-27T00:22:54.554Z,52.60
2023-04-27T00:24:27.911Z,52.60
2023-04-27T00:26:01.299Z,52.70
2023-04-27T00:27:36.209Z,52.60
2023-04-27T00:29:09.292Z,52.60
2023-04-27T00:30:42.492Z,52.90
2023-04-27T00:32:16.393Z,52.50
2023-04-27T00:33:49.635Z,52.50
2023-04-27T00:35:23.152Z,52.50
2023-04-27T00:36:55.255Z,52.50
2023-04-27T00:38:29.008Z,52.50
2023-04-27T00:40:02.205Z,52.50
2023-04-27T00:41:39.061Z,52.70
2023-04-27T00:43:13.662Z,52.70
2023-04-27T00:44:47.301Z,52.60
2023-04-27T00:46:19.919Z,52.60
2023-04-27T00:47:53.475Z,52.70
2023-04-27T00:49:28.371Z,52.70
2023-04-27T00:51:01.576Z,52.70
2023-04-27T00:52:34.523Z,52.70
2023-04-27T00:54:08.638Z,52.70
2023-04-27T00:55:42.796Z,52.80
2023-04-27T00:57:16.246Z,52.80
2023-04-27T00:58:52.012Z,52.70
2023-04-27T01:00:26.074Z,52.80
2023-04-27T01:02:01.843Z,52.80
2023-04-27T01:03:35.562Z,52.80
2023-04-27T01:05:10.145Z,52.80
2023-04-27T01:06:43.369Z,52.80
2023-04-27T01:08:16.540Z,52.80
2023-04-27T01:09:49.996Z,52.90
2023-04-27T01:11:22.270Z,52.90
2023-04-27T01:12:55.552Z,53.00
2023-04-27T01:14:30.580Z,52.90
2023-04-27T01:16:03.740Z,53.00
2023-04-27T01:17:43.414Z,53.30
2023-04-27T01:19:16.984Z,52.90
2023-04-27T01:20:50.146Z,52.90
2023-04-27T01:22:22.467Z,52.90
2023-04-27T01:23:56.937Z,53.00
2023-04-27T01:25:29.270Z,53.00
2023-04-27T01:27:04.066Z,53.00
2023-04-27T01:28:37.244Z,53.00
2023-04-27T01:30:12.755Z,53.10
2023-04-27T01:31:46.443Z,53.00
2023-04-27T01:33:20.712Z,53.10
2023-04-27T01:34:55.150Z,53.10
2023-04-27T01:36:33.033Z,53.10
2023-04-27T01:38:06.390Z,53.20
2023-04-27T01:39:41.050Z,53.30
2023-04-27T01:41:14.607Z,53.30
2023-04-27T01:42:48.122Z,53.60
2023-04-27T01:44:21.069Z,53.20
2023-04-27T01:45:54.302Z,53.30
2023-04-27T01:47:28.692Z,53.30
2023-04-27T01:49:01.981Z,53.30
2023-04-27T01:50:35.166Z,53.20
2023-04-27T01:52:08.333Z,53.30
2023-04-27T01:53:43.364Z,53.30
2023-04-27T01:55:17.967Z,53.40
2023-04-27T01:56:50.426Z,53.50
2023-04-27T01:58:24.400Z,53.50
2023-04-27T01:59:57.620Z,53.60
2023-04-27T02:01:31.334Z,53.50
2023-04-27T02:03:05.000Z,53.50
2023-04-27T02:04:38.467Z,53.60
2023-04-27T02:06:12.250Z,53.70
2023-04-27T02:07:45.929Z,53.60
2023-04-27T02:09:19.151Z,54.30
2023-04-27T02:10:53.930Z,53.80
2023-04-27T02:12:27.144Z,53.90
2023-04-27T02:14:01.401Z,53.80
2023-04-27T02:15:38.720Z,53.80
2023-04-27T02:17:11.876Z,54.00
2023-04-27T02:18:45.920Z,54.00
2023-04-27T02:20:19.141Z,54.00
2023-04-27T02:21:52.469Z,54.00
2023-04-27T02:23:25.675Z,54.00
2023-04-27T02:24:58.960Z,54.00
2023-04-27T02:26:33.459Z,54.10
2023-04-27T02:28:06.690Z,54.20
2023-04-27T02:29:40.298Z,54.20
2023-04-27T02:31:14.496Z,54.20
2023-04-27T02:32:47.922Z,54.90
2023-04-27T02:34:21.387Z,54.20
2023-04-27T02:35:54.509Z,54.20
2023-04-27T02:37:26.859Z,54.20
2023-04-27T02:39:00.163Z,54.30
2023-04-27T02:40:33.523Z,54.30
2023-04-27T02:42:08.023Z,54.40
2023-04-27T02:43:42.132Z,54.40
2023-04-27T02:45:15.307Z,54.40
2023-04-27T02:46:48.670Z,54.20
2023-04-27T02:48:21.935Z,54.20
2023-04-27T02:49:55.178Z,54.30
2023-04-27T02:51:28.291Z,54.30
2023-04-27T02:53:00.609Z,54.40
2023-04-27T02:54:34.009Z,54.40
2023-04-27T02:56:07.653Z,54.40
2023-04-27T02:57:42.139Z,54.40
2023-04-27T02:59:15.733Z,54.50
2023-04-27T03:00:54.216Z,54.40
2023-04-27T03:02:27.595Z,54.40
2023-04-27T03:04:01.093Z,54.40
2023-04-27T03:05:34.709Z,54.30
2023-04-27T03:07:06.891Z,54.30
2023-04-27T03:08:40.028Z,54.30
2023-04-27T03:10:13.212Z,54.30
2023-04-27T03:11:46.429Z,54.40
2023-04-27T03:13:20.121Z,54.30
2023-04-27T03:14:53.521Z,54.40
2023-04-27T03:16:26.857Z,54.40
2023-04-27T03:18:00.131Z,54.50
2023-04-27T03:19:33.355Z,54.50
2023-04-27T03:21:07.531Z,54.60
2023-04-27T03:22:40.827Z,54.60
2023-04-27T03:24:14.152Z,54.50
2023-04-27T03:25:49.176Z,54.50
2023-04-27T03:27:22.400Z,54.80
2023-04-27T03:28:58.168Z,54.40
2023-04-27T03:30:34.865Z,54.30
2023-04-27T03:32:07.315Z,54.30
2023-04-27T03:33:41.997Z,54.40
2023-04-27T03:35:15.697Z,54.40
2023-04-27T03:36:49.122Z,54.50
2023-04-27T03:38:22.301Z,54.50
2023-04-27T03:39:55.768Z,54.60
2023-04-27T03:41:28.986Z,54.60
2023-04-27T03:43:02.208Z,54.60
2023-04-27T03:44:36.780Z,54.70
2023-04-27T03:46:10.610Z,54.70
2023-04-27T03:47:44.143Z,54.80
2023-04-27T03:49:17.692Z,54.90
2023-04-27T03:50:50.466Z,55.00
2023-04-27T03:52:23.656Z,54.90
2023-04-27T03:53:56.878Z,54.90
2023-04-27T03:55:31.079Z,55.00
2023-04-27T03:57:04.378Z,54.90
2023-04-27T03:58:37.583Z,55.00
2023-04-27T04:00:35.844Z,55.00
2023-04-27T04:02:09.784Z,55.10
2023-04-27T04:03:43.630Z,55.00
2023-04-27T04:05:18.932Z,55.10
2023-04-27T04:06:52.115Z,55.20
2023-04-27T04:08:25.915Z,55.20
2023-04-27T04:09:59.216Z,55.10
2023-04-27T04:11:32.501Z,55.20
2023-04-27T04:13:07.698Z,55.20
2023-04-27T04:14:41.073Z,55.20
2023-04-27T04:16:15.706Z,55.30
2023-04-27T04:17:49.388Z,55.40
2023-04-27T04:19:24.310Z,55.40
2023-04-27T04:20:57.867Z,55.50
2023-04-27T04:22:30.974Z,55.50
2023-04-27T04:24:04.304Z,55.50
2023-04-27T04:25:40.178Z,55.50
2023-04-27T04:27:13.892Z,55.60
2023-04-27T04:28:47.051Z,55.60
2023-04-27T04:30:20.532Z,55.60
2023-04-27T04:31:56.915Z,55.60
2023-04-27T04:33:31.098Z,55.60
2023-04-27T04:35:05.930Z,55.60
2023-04-27T04:36:40.419Z,55.60
2023-04-27T04:38:14.060Z,55.60
2023-04-27T04:39:47.328Z,55.60
2023-04-27T04:41:20.479Z,55.60
2023-04-27T04:42:54.006Z,55.60
2023-04-27T04:44:27.131Z,55.50
2023-04-27T04:46:00.644Z,55.60
2023-04-27T04:47:36.563Z,55.50
2023-04-27T04:49:10.348Z,55.60
2023-04-27T04:50:45.846Z,55.80
2023-04-27T04:52:19.666Z,55.70
2023-04-27T04:53:52.863Z,55.90
2023-04-27T04:55:28.721Z,55.90
2023-04-27T04:57:02.235Z,56.00
2023-04-27T04:58:36.082Z,56.10
2023-04-27T05:00:13.773Z,56.10
2023-04-27T05:01:47.133Z,56.20
2023-04-27T05:03:21.859Z,56.20
2023-04-27T05:04:57.216Z,56.30
2023-04-27T05:06:31.680Z,56.40
2023-04-27T05:08:05.514Z,56.40
2023-04-27T05:09:38.620Z,56.40
2023-04-27T05:11:12.547Z,56.40
2023-04-27T05:12:45.725Z,56.40
2023-04-27T05:14:19.217Z,56.50
2023-04-27T05:15:52.634Z,56.40
2023-04-27T05:17:26.086Z,56.50
2023-04-27T05:19:00.607Z,56.60
2023-04-27T05:20:36.365Z,56.60
2023-04-27T05:22:09.578Z,56.60
2023-04-27T05:23:42.984Z,56.60
2023-04-27T05:25:16.177Z,56.60
2023-04-27T05:26:49.330Z,56.60
2023-04-27T05:28:22.783Z,56.70
2023-04-27T05:29:56.009Z,56.70
2023-04-27T05:31:29.233Z,56.90
2023-04-27T05:33:02.819Z,57.00
2023-04-27T05:34:37.434Z,57.10
2023-04-27T05:36:10.873Z,57.10
2023-04-27T05:37:44.029Z,57.20
2023-04-27T05:39:17.433Z,57.30
2023-04-27T05:40:56.000Z,57.30
2023-04-27T05:42:29.343Z,57.50
2023-04-27T05:44:01.504Z,57.50
2023-04-27T05:45:34.682Z,57.60
2023-04-27T05:47:07.777Z,57.60
2023-04-27T05:48:41.214Z,57.60
2023-04-27T05:50:16.153Z,57.70
2023-04-27T05:51:49.347Z,57.90
2023-04-27T05:53:22.439Z,58.00
2023-04-27T05:54:56.710Z,58.00
2023-04-27T05:56:29.823Z,58.20
2023-04-27T05:58:08.625Z,58.40
2023-04-27T05:59:42.542Z,58.60
2023-04-27T06:01:15.999Z,58.70
2023-04-27T06:02:49.391Z,58.90
2023-04-27T06:04:22.901Z,58.90
2023-04-27T06:05:59.367Z,59.00
2023-04-27T06:07:32.477Z,59.10
2023-04-27T06:09:05.683Z,59.00
2023-04-27T06:10:39.372Z,59.20
2023-04-27T06:12:12.477Z,59.30
2023-04-27T06:13:46.219Z,59.40
2023-04-27T06:15:19.853Z,59.40
2023-04-27T06:16:52.938Z,59.60
2023-04-27T06:18:26.437Z,59.60
2023-04-27T06:19:59.632Z,59.60
2023-04-27T06:21:35.444Z,59.60
2023-04-27T06:23:08.883Z,59.70
2023-04-27T06:24:42.614Z,59.70
2023-04-27T06:26:15.760Z,59.70
2023-04-27T06:27:49.315Z,59.80
2023-04-27T06:29:22.840Z,59.90
2023-04-27T06:30:55.989Z,59.80
2023-04-27T06:32:29.524Z,59.90
2023-04-27T06:34:02.753Z,59.90
2023-04-27T06:35:36.144Z,59.80
2023-04-27T06:37:10.864Z,59.90
2023-04-27T06:38:44.058Z,60.00
2023-04-27T06:40:17.317Z,59.80
2023-04-27T06:41:50.788Z,59.90
2023-04-27T06:43:25.697Z,59.90
2023-04-27T06:44:59.220Z,59.90
2023-04-27T06:46:32.519Z,59.90
2023-04-27T06:48:06.606Z,59.90
2023-04-27T06:49:39.927Z,59.90
2023-04-27T06:51:13.754Z,59.80
2023-04-27T06:52:48.232Z,59.70
2023-04-27T06:54:21.560Z,59.70
2023-04-27T06:55:54.636Z,59.70
2023-04-27T06:57:27.848Z,59.50
2023-04-27T06:59:00.986Z,59.50
2023-04-27T07:00:34.399Z,59.40
2023-04-27T07:02:08.544Z,59.40
2023-04-27T07:03:41.817Z,59.50
2023-04-27T07:05:15.413Z,59.60
2023-04-27T07:06:48.538Z,59.60
2023-04-27T07:08:23.153Z,59.60
2023-04-27T07:09:56.735Z,59.60
2023-04-27T07:11:29.822Z,59.80
2023-04-27T07:13:03.378Z,59.50
2023-04-27T07:14:36.771Z,59.40
2023-04-27T07:16:10.047Z,59.30
2023-04-27T07:17:43.620Z,59.10
2023-04-27T07:19:16.980Z,58.80
2023-04-27T07:20:50.539Z,58.60
2023-04-27T07:22:23.694Z,58.60
2023-04-27T07:23:58.392Z,58.30
2023-04-27T07:25:31.604Z,58.10
2023-04-27T07:27:05.141Z,57.80
2023-04-27T07:28:39.084Z,57.60
2023-04-27T07:30:14.257Z,57.60
2023-04-27T07:31:48.166Z,57.50
2023-04-27T07:33:22.155Z,56.40
2023-04-27T07:34:57.004Z,56.00
2023-04-27T07:36:42.919Z,55.70
2023-04-27T07:38:17.301Z,55.40
2023-04-27T07:39:52.947Z,55.30
2023-04-27T07:41:26.201Z,55.10
2023-04-27T07:42:59.785Z,54.90
2023-04-27T07:44:33.016Z,54.70
2023-04-27T07:46:06.372Z,54.50
2023-04-27T07:47:39.987Z,54.10
2023-04-27T07:49:14.177Z,53.70
2023-04-27T07:50:47.634Z,53.40
2023-04-27T07:52:20.766Z,53.10
2023-04-27T07:53:54.195Z,53.00
2023-04-27T07:55:29.414Z,52.80
2023-04-27T07:57:04.019Z,52.50
2023-04-27T07:58:37.902Z,52.40
2023-04-27T08:00:13.141Z,51.80
2023-04-27T08:01:46.651Z,51.30
2023-04-27T08:03:19.967Z,51.00
2023-04-27T08:04:53.379Z,50.70
2023-04-27T08:06:28.879Z,50.50
2023-04-27T08:08:02.956Z,50.50
2023-04-27T08:09:36.474Z,50.00
2023-04-27T08:11:12.564Z,49.60
2023-04-27T08:12:45.897Z,49.30
2023-04-27T08:14:19.110Z,49.20
2023-04-27T08:15:54.164Z,48.90
2023-04-27T08:17:27.346Z,48.80
2023-04-27T08:19:01.249Z,48.60
2023-04-27T08:20:34.648Z,48.60
2023-04-27T08:22:08.382Z,48.30
2023-04-27T08:23:41.571Z,48.00
2023-04-27T08:25:14.747Z,47.80
2023-04-27T08:26:49.849Z,47.90
2023-04-27T08:28:23.202Z,47.50
2023-04-27T08:29:56.460Z,47.50
2023-04-27T08:31:30.157Z,47.00
2023-04-27T08:33:03.399Z,46.90
2023-04-27T08:34:38.343Z,47.40
2023-04-27T08:36:11.312Z,46.70
2023-04-27T08:37:44.556Z,46.60
2023-04-27T08:39:18.480Z,47.00
2023-04-27T08:40:52.055Z,46.70
2023-04-27T08:42:26.938Z,46.20
2023-04-27T08:44:00.913Z,46.10
2023-04-27T08:45:34.598Z,45.80
2023-04-27T08:47:08.718Z,45.30
2023-04-27T08:48:41.816Z,44.90
2023-04-27T08:50:14.989Z,44.80
2023-04-27T08:51:48.091Z,44.90
2023-04-27T08:53:22.369Z,44.60
2023-04-27T08:54:55.563Z,44.30
2023-04-27T08:56:30.569Z,44.30
2023-04-27T08:58:05.434Z,44.20
2023-04-27T08:59:39.334Z,43.90
2023-04-27T09:01:12.999Z,44.00
2023-04-27T09:02:47.662Z,43.80
2023-04-27T09:04:21.239Z,43.80
2023-04-27T09:06:04.435Z,43.50
2023-04-27T09:07:38.796Z,43.20
2023-04-27T09:09:22.949Z,43.00
2023-04-27T09:10:56.308Z,42.80
2023-04-27T09:12:29.561Z,42.60
2023-04-27T09:14:17.710Z,42.10
2023-04-27T09:15:52.861Z,42.00
2023-04-27T09:17:27.699Z,42.30
2023-04-27T09:19:01.114Z,42.50
2023-04-27T09:20:34.469Z,42.50
2023-04-27T09:22:10.760Z,42.30
2023-04-27T09:23:46.328Z,42.10
2023-04-27T09:25:31.458Z,42.10
2023-04-27T09:27:05.302Z,41.60
2023-04-27T09:28:41.225Z,42.00
2023-04-27T09:30:17.493Z,41.60
2023-04-27T09:31:50.801Z,41.40
2023-04-27T09:33:26.904Z,41.70
2023-04-27T09:35:00.031Z,41.60
2023-04-27T09:36:33.255Z,41.40
2023-04-27T09:38:06.598Z,41.30
2023-04-27T09:39:40.090Z,41.20
2023-04-27T09:41:13.739Z,41.00
2023-04-27T09:42:47.804Z,40.90
2023-04-27T09:44:21.670Z,40.80
2023-04-27T09:45:56.921Z,41.00
2023-04-27T09:47:31.005Z,40.90
2023-04-27T09:49:06.021Z,40.90
2023-04-27T09:50:42.460Z,40.60
2023-04-27T09:52:15.641Z,40.50
2023-04-27T09:53:53.973Z,40.50
2023-04-27T09:55:33.487Z,39.90
2023-04-27T09:57:26.374Z,39.90
2023-04-27T09:59:37.182Z,39.30
2023-04-27T10:01:25.353Z,38.80
2023-04-27T10:03:23.518Z,39.40
2023-04-27T10:05:31.011Z,39.00
2023-04-27T10:07:06.706Z,38.80
2023-04-27T10:08:40.474Z,39.20
2023-04-27T10:10:19.162Z,38.90
2023-04-27T10:11:54.055Z,38.50
2023-04-27T10:13:28.042Z,38.60
2023-04-27T10:15:13.403Z,38.50
2023-04-27T10:16:52.153Z,38.70
2023-04-27T10:18:31.256Z,38.70
2023-04-27T10:20:08.928Z,38.70
2023-04-27T10:21:54.402Z,38.40
2023-04-27T10:23:28.931Z,37.80
2023-04-27T10:25:02.108Z,38.20
2023-04-27T10:26:38.027Z,38.00
2023-04-27T10:28:18.398Z,37.80
2023-04-27T10:29:52.185Z,37.50
2023-04-27T10:31:29.785Z,37.70
2023-04-27T10:33:09.657Z,37.20
2023-04-27T10:34:47.083Z,37.20
2023-04-27T10:36:20.399Z,37.60
2023-04-27T10:37:53.632Z,37.50
2023-04-27T10:39:47.909Z,37.20
2023-04-27T10:41:23.436Z,36.90
2023-04-27T10:42:56.846Z,37.50
2023-04-27T10:44:32.370Z,37.10
2023-04-27T10:46:10.705Z,36.60
2023-04-27T10:47:46.176Z,36.40
2023-04-27T10:49:21.194Z,37.10
2023-04-27T10:50:54.790Z,36.80
2023-04-27T10:52:28.395Z,37.10
2023-04-27T10:54:02.457Z,36.90
2023-04-27T10:55:36.590Z,36.70
2023-04-27T10:57:12.578Z,36.90
2023-04-27T10:58:49.293Z,36.40
2023-04-27T11:00:27.139Z,36.60
2023-04-27T11:02:04.109Z,36.50
2023-04-27T11:03:37.598Z,36.50
2023-04-27T11:05:20.001Z,36.10
2023-04-27T11:06:54.612Z,35.10
2023-04-27T11:08:27.893Z,35.70
2023-04-27T11:10:01.241Z,35.60
2023-04-27T11:11:34.466Z,35.30
2023-04-27T11:13:11.287Z,35.30
2023-04-27T11:14:44.614Z,35.20
2023-04-27T11:16:19.316Z,35.40
2023-04-27T11:17:52.650Z,34.90
2023-04-27T11:19:25.835Z,34.90
2023-04-27T11:21:11.822Z,35.60
2023-04-27T11:22:46.822Z,34.80
2023-04-27T11:24:19.957Z,34.80
2023-04-27T11:25:53.317Z,34.60
2023-04-27T11:27:38.502Z,34.20
2023-04-27T11:29:14.117Z,33.50
2023-04-27T11:30:49.218Z,34.70
2023-04-27T11:32:23.671Z,34.50
2023-04-27T11:33:56.897Z,34.00
2023-04-27T11:35:36.002Z,34.50
2023-04-27T11:37:18.492Z,33.60
2023-04-27T11:38:52.064Z,33.80
2023-04-27T11:40:25.609Z,33.80
2023-04-27T11:41:59.000Z,34.00
2023-04-27T11:43:33.311Z,34.20
2023-04-27T11:45:11.861Z,34.70
2023-04-27T11:46:47.593Z,34.20
2023-04-27T11:48:22.520Z,33.90
2023-04-27T11:49:58.585Z,33.90
2023-04-27T11:51:33.731Z,33.70
2023-04-27T11:53:08.256Z,33.80
2023-04-27T11:54:48.303Z,33.70
2023-04-27T11:56:21.468Z,33.60
2023-04-27T11:57:59.824Z,33.40
2023-04-27T11:59:33.268Z,33.10
2023-04-27T12:01:07.910Z,33.20
2023-04-27T12:02:43.252Z,33.10
2023-04-27T12:04:17.126Z,33.30
2023-04-27T12:05:52.190Z,33.30
2023-04-27T12:07:25.752Z,33.00
2023-04-27T12:09:00.277Z,32.90
2023-04-27T12:10:33.696Z,33.00
2023-04-27T12:12:07.448Z,32.90
2023-04-27T12:13:40.793Z,32.60
2023-04-27T12:15:13.913Z,32.60
2023-04-27T12:16:47.626Z,32.60
2023-04-27T12:18:20.758Z,32.70
2023-04-27T12:19:53.984Z,32.40
2023-04-27T12:21:27.422Z,32.40
2023-04-27T12:23:00.717Z,32.70
2023-04-27T12:24:36.297Z,32.50
2023-04-27T12:26:09.814Z,32.50
2023-04-27T12:27:43.741Z,32.60
2023-04-27T12:29:17.294Z,33.00
2023-04-27T12:30:50.883Z,32.60
2023-04-27T12:32:24.454Z,32.70
2023-04-27T12:33:57.680Z,32.80
2023-04-27T12:35:31.810Z,32.90
2023-04-27T12:37:05.164Z,32.00
2023-04-27T12:38:38.309Z,32.20
2023-04-27T12:40:14.247Z,32.20
2023-04-27T12:41:49.517Z,31.60
2023-04-27T12:43:22.622Z,31.90
2023-04-27T12:44:56.749Z,32.10
2023-04-27T12:46:29.903Z,32.00
2023-04-27T12:48:04.249Z,31.60
2023-04-27T12:49:37.823Z,31.50
2023-04-27T12:51:11.249Z,31.20
2023-04-27T12:52:44.405Z,31.40
2023-04-27T12:54:17.688Z,31.20
2023-04-27T12:55:53.446Z,31.60
2023-04-27T12:57:27.916Z,32.00
2023-04-27T12:59:01.178Z,32.00
2023-04-27T13:00:35.413Z,31.80
2023-04-27T13:02:10.641Z,31.40
2023-04-27T13:03:44.212Z,32.00
2023-04-27T13:05:17.477Z,31.90
2023-04-27T13:06:50.722Z,31.80
2023-04-27T13:08:23.847Z,31.80
2023-04-27T13:09:57.311Z,31.90
2023-04-27T13:11:31.853Z,31.70
2023-04-27T13:13:05.054Z,31.50
2023-04-27T13:14:38.752Z,31.70
2023-04-27T13:16:12.788Z,31.20
2023-04-27T13:17:48.419Z,30.90
2023-04-27T13:19:21.786Z,30.70
2023-04-27T13:20:55.004Z,30.70
2023-04-27T13:22:29.042Z,30.50
2023-04-27T13:24:02.179Z,30.60
2023-04-27T13:25:35.372Z,30.50
2023-04-27T13:27:09.947Z,30.30
2023-04-27T13:28:43.184Z,30.20
2023-04-27T13:30:16.811Z,30.00
2023-04-27T13:31:50.546Z,30.90
2023-04-27T13:33:24.095Z,31.20
2023-04-27T13:34:57.348Z,31.30
2023-04-27T13:36:30.598Z,31.10
2023-04-27T13:38:04.351Z,31.40
2023-04-27T13:39:38.124Z,31.50
2023-04-27T13:41:11.470Z,31.20
2023-04-27T13:42:46.198Z,31.00
2023-04-27T13:44:20.202Z,31.00
2023-04-27T13:45:55.183Z,31.20
2023-04-27T13:47:29.878Z,31.20
2023-04-27T13:49:03.115Z,31.00
2023-04-27T13:50:36.909Z,31.00
2023-04-27T13:52:10.670Z,31.30
2023-04-27T13:53:43.907Z,31.10
2023-04-27T13:55:17.017Z,31.10
2023-04-27T13:56:50.334Z,31.30
2023-04-27T13:58:26.283Z,31.40
2023-04-27T14:00:00.416Z,31.20
2023-04-27T14:01:34.185Z,31.20
2023-04-27T14:03:09.186Z,31.10
2023-04-27T14:04:42.462Z,31.10
2023-04-27T14:06:16.445Z,30.90
2023-04-27T14:07:49.609Z,30.40
2023-04-27T14:09:24.120Z,30.60
2023-04-27T14:10:57.500Z,30.70
2023-04-27T14:12:31.986Z,30.50
2023-04-27T14:14:06.658Z,30.20
2023-04-27T14:15:39.709Z,30.40
2023-04-27T14:17:12.849Z,30.50
2023-04-27T14:18:46.005Z,30.70
2023-04-27T14:20:21.148Z,30.50
2023-04-27T14:21:55.412Z,30.50
2023-04-27T14:23:28.812Z,30.60
2023-04-27T14:25:02.179Z,30.40
2023-04-27T14:26:35.357Z,30.40
2023-04-27T14:28:09.914Z,30.50
2023-04-27T14:29:44.489Z,30.30
2023-04-27T14:31:18.612Z,30.20
2023-04-27T14:32:51.989Z,30.20
2023-04-27T14:34:25.453Z,30.30
2023-04-27T14:35:58.577Z,30.20
2023-04-27T14:37:32.021Z,30.00
2023-04-27T14:39:06.365Z,30.00
2023-04-27T14:40:39.721Z,30.60
2023-04-27T14:42:13.039Z,29.90
2023-04-27T14:43:48.395Z,29.60
2023-04-27T14:45:24.307Z,29.60
2023-04-27T14:46:58.233Z,29.90
2023-04-27T14:48:33.077Z,30.00
2023-04-27T14:50:08.298Z,29.90
2023-04-27T14:51:43.442Z,29.90
2023-04-27T14:53:17.162Z,29.60
2023-04-27T14:55:02.136Z,29.50
2023-04-27T14:56:36.026Z,29.40
2023-04-27T14:58:09.165Z,29.70
2023-04-27T14:59:42.609Z,29.60
2023-04-27T15:01:17.188Z,29.50
2023-04-27T15:02:50.419Z,29.70
2023-04-27T15:04:23.877Z,29.90
2023-04-27T15:05:57.326Z,29.90
2023-04-27T15:07:30.719Z,29.60
2023-04-27T15:09:04.527Z,29.90
2023-04-27T15:10:37.826Z,29.80
2023-04-27T15:12:11.584Z,29.70
2023-04-27T15:13:44.672Z,29.80
2023-04-27T15:15:18.141Z,29.80
2023-04-27T15:16:52.911Z,29.90
2023-04-27T15:18:27.110Z,29.90
2023-04-27T15:20:00.352Z,29.70
2023-04-27T15:21:34.570Z,29.80
2023-04-27T15:23:07.722Z,29.80
2023-04-27T15:24:40.962Z,29.90
2023-04-27T15:26:14.202Z,29.90
2023-04-27T15:27:47.727Z,29.80
2023-04-27T15:29:20.896Z,29.80
2023-04-27T15:30:54.123Z,29.80
2023-04-27T15:32:30.147Z,29.90
2023-04-27T15:34:03.555Z,29.80
2023-04-27T15:35:38.853Z,30.40
2023-04-27T15:37:12.197Z,29.90
2023-04-27T15:38:45.555Z,29.90
2023-04-27T15:40:18.981Z,29.80
2023-04-27T15:41:52.164Z,29.70
2023-04-27T15:43:25.626Z,29.90
2023-04-27T15:45:00.345Z,29.80
2023-04-27T15:46:33.893Z,29.80
2023-04-27T15:48:08.662Z,29.80
2023-04-27T15:49:53.591Z,30.00
2023-04-27T15:51:29.730Z,30.00
2023-04-27T15:53:02.976Z,30.00
2023-04-27T15:54:36.068Z,29.80
2023-04-27T15:56:09.263Z,29.80
2023-04-27T15:57:42.565Z,29.80
2023-04-27T15:59:16.002Z,29.80
2023-04-27T16:00:49.560Z,29.80
2023-04-27T16:02:23.113Z,29.80
2023-04-27T16:03:57.818Z,29.90
2023-04-27T16:05:31.418Z,30.00
2023-04-27T16:07:06.659Z,30.00
2023-04-27T16:08:41.094Z,30.10
2023-04-27T16:10:14.976Z,30.00
2023-04-27T16:11:48.182Z,30.00
2023-04-27T16:13:21.317Z,30.10
2023-04-27T16:14:57.247Z,30.10
2023-04-27T16:16:30.426Z,30.20
2023-04-27T16:18:04.033Z,30.20
2023-04-27T16:19:38.571Z,30.20
2023-04-27T16:21:11.798Z,30.00
2023-04-27T16:22:44.971Z,30.20
2023-04-27T16:24:19.109Z,30.20
2023-04-27T16:25:52.365Z,30.30
2023-04-27T16:27:26.081Z,30.20
2023-04-27T16:28:59.198Z,30.20
2023-04-27T16:30:32.478Z,30.30
2023-04-27T16:32:06.785Z,30.30
2023-04-27T16:33:40.121Z,30.30
2023-04-27T16:35:14.728Z,30.50
2023-04-27T16:36:49.710Z,30.50
2023-04-27T16:38:22.958Z,30.60
2023-04-27T16:39:59.046Z,30.70
2023-04-27T16:41:32.306Z,30.60
2023-04-27T16:43:06.211Z,30.80
2023-04-27T16:44:39.778Z,30.80
2023-04-27T16:46:14.527Z,30.70
2023-04-27T16:47:47.701Z,30.70
2023-04-27T16:49:21.061Z,30.80
2023-04-27T16:50:56.130Z,31.00
2023-04-27T16:52:29.454Z,31.00
2023-04-27T16:54:03.449Z,31.10
2023-04-27T16:55:37.364Z,31.10
2023-04-27T16:57:10.989Z,31.00
2023-04-27T16:58:44.309Z,30.90
2023-04-27T17:00:18.249Z,31.00
2023-04-27T17:01:52.166Z,31.00
2023-04-27T17:03:26.017Z,31.10
2023-04-27T17:05:00.667Z,31.20
2023-04-27T17:06:35.771Z,31.20
2023-04-27T17:08:09.293Z,31.30
2023-04-27T17:09:42.604Z,31.20
2023-04-27T17:11:15.868Z,31.20
2023-04-27T17:12:49.075Z,31.20
2023-04-27T17:14:24.131Z,31.10
2023-04-27T17:15:57.507Z,31.30
2023-04-27T17:17:32.616Z,31.50
2023-04-27T17:19:05.975Z,31.50
2023-04-27T17:20:41.609Z,31.50
2023-04-27T17:22:16.754Z,31.80
2023-04-27T17:23:50.623Z,31.80
2023-04-27T17:25:24.005Z,31.90
2023-04-27T17:26:57.311Z,31.90
2023-04-27T17:28:30.970Z,31.90
2023-04-27T17:30:04.778Z,32.00
2023-04-27T17:31:38.009Z,32.10
2023-04-27T17:33:11.493Z,32.30
2023-04-27T17:34:45.475Z,32.50
2023-04-27T17:36:18.851Z,32.30
2023-04-27T17:37:54.863Z,32.60
2023-04-27T17:39:28.680Z,32.50
2023-04-27T17:41:01.825Z,32.50
2023-04-27T17:42:35.311Z,32.40
2023-04-27T17:44:08.468Z,32.50
2023-04-27T17:45:41.674Z,32.30
2023-04-27T17:47:15.179Z,32.30
2023-04-27T17:48:48.355Z,32.40
2023-04-27T17:50:21.835Z,32.40
2023-04-27T17:51:55.339Z,32.50
2023-04-27T17:53:29.816Z,32.60
2023-04-27T17:55:03.007Z,32.50
2023-04-27T17:56:36.296Z,32.50
2023-04-27T17:58:11.038Z,32.70
2023-04-27T17:59:45.192Z,32.80
2023-04-27T18:01:18.491Z,32.70
2023-04-27T18:02:51.849Z,32.60
2023-04-27T18:04:25.405Z,32.40
2023-04-27T18:06:07.965Z,32.60
2023-04-27T18:07:46.036Z,32.70
2023-04-27T18:09:20.796Z,32.90
2023-04-27T18:10:53.990Z,33.20
2023-04-27T18:12:27.324Z,33.40
2023-04-27T18:14:01.761Z,33.50
2023-04-27T18:15:35.419Z,33.70
2023-04-27T18:17:08.646Z,34.10
2023-04-27T18:18:41.861Z,34.10
2023-04-27T18:20:15.540Z,34.40
2023-04-27T18:21:48.633Z,34.60
2023-04-27T18:23:22.125Z,34.60
2023-04-27T18:24:57.235Z,34.90
2023-04-27T18:26:31.044Z,35.00
2023-04-27T18:28:05.869Z,35.00
2023-04-27T18:29:39.778Z,35.20
2023-04-27T18:31:16.136Z,35.30
2023-04-27T18:32:49.431Z,35.50
2023-04-27T18:34:22.681Z,35.60
2023-04-27T18:35:56.074Z,35.70
2023-04-27T18:37:31.869Z,36.00
2023-04-27T18:39:05.237Z,35.80
2023-04-27T18:40:41.053Z,36.00
2023-04-27T18:42:14.633Z,36.30
2023-04-27T18:43:48.028Z,36.20
2023-04-27T18:45:21.558Z,36.60
2023-04-27T18:46:54.916Z,36.70
2023-04-27T18:48:28.322Z,37.00
2023-04-27T18:50:01.637Z,37.20
2023-04-27T18:51:35.245Z,37.30
2023-04-27T18:53:08.518Z,37.40
2023-04-27T18:54:42.056Z,37.40
2023-04-27T18:56:16.655Z,37.50
2023-04-27T18:57:50.024Z,37.50
2023-04-27T18:59:23.339Z,37.60
2023-04-27T19:00:56.685Z,37.60
2023-04-27T19:02:30.156Z,37.40
2023-04-27T19:04:03.985Z,37.60
2023-04-27T19:05:40.012Z,37.70
2023-04-27T19:07:13.564Z,37.60
2023-04-27T19:08:47.411Z,37.90
2023-04-27T19:10:20.864Z,38.10
2023-04-27T19:12:02.754Z,38.30
2023-04-27T19:13:37.784Z,38.30
2023-04-27T19:15:13.728Z,38.00
2023-04-27T19:16:47.325Z,38.00
2023-04-27T19:18:20.748Z,37.90
2023-04-27T19:19:54.159Z,37.80
2023-04-27T19:21:27.463Z,38.50
2023-04-27T19:23:01.840Z,38.20
2023-04-27T19:24:35.668Z,38.00
2023-04-27T19:26:13.305Z,38.30
2023-04-27T19:27:48.795Z,38.70
2023-04-27T19:29:25.228Z,38.90
2023-04-27T19:31:00.221Z,39.20
2023-04-27T19:32:34.422Z,38.90
2023-04-27T19:34:07.867Z,38.90
2023-04-27T19:35:41.304Z,38.80
2023-04-27T19:37:15.086Z,39.30
2023-04-27T19:38:48.399Z,39.50
2023-04-27T19:40:21.681Z,39.60
2023-04-27T19:41:54.953Z,39.50
2023-04-27T19:43:29.526Z,39.30
2023-04-27T19:45:03.832Z,39.60
2023-04-27T19:46:37.244Z,39.80
2023-04-27T19:48:11.166Z,40.00
2023-04-27T19:49:44.492Z,40.00
2023-04-27T19:51:17.905Z,40.10
2023-04-27T19:52:51.249Z,40.10
2023-04-27T19:54:24.681Z,40.30
2023-04-27T19:56:00.054Z,40.20
2023-04-27T19:57:34.644Z,40.10
2023-04-27T19:59:09.388Z,40.30
2023-04-27T20:00:42.772Z,40.60
2023-04-27T20:02:16.405Z,41.00
2023-04-27T20:03:50.154Z,40.70
2023-04-27T20:05:23.922Z,40.90
2023-04-27T20:06:57.699Z,41.10
2023-04-27T20:08:31.417Z,41.20
2023-04-27T20:10:05.628Z,41.40
2023-04-27T20:11:39.450Z,41.50
2023-04-27T20:13:13.119Z,41.60
2023-04-27T20:14:47.913Z,41.70
2023-04-27T20:16:22.009Z,41.70